createdAt,value
2023-04-04T00:04:02.460Z,-1.65
2023-04-04T00:22:18.346Z,-1.62
2023-04-04T00:26:53.122Z,-1.63
2023-04-04T00:31:03.300Z,-1.66
2023-04-04T00:35:35.566Z,-1.68
2023-04-04T00:40:04.996Z,-1.72
2023-04-04T00:44:34.854Z,-1.77
2023-04-04T00:49:05.277Z,-1.79
2023-04-04T01:01:58.437Z,-1.80
2023-04-04T01:06:16.381Z,-1.83
2023-04-04T01:10:46.720Z,-1.86
2023-04-04T01:33:46.112Z,-1.93
2023-04-04T01:38:32.803Z,-1.98
2023-04-04T02:04:21.874Z,-2.05
2023-04-04T02:08:45.096Z,-2.09
2023-04-04T02:13:14.111Z,-2.12
2023-04-04T02:17:35.395Z,-2.16
2023-04-04T02:22:04.193Z,-2.20
2023-04-04T02:40:34.152Z,-2.23
2023-04-04T02:45:03.425Z,-2.26
2023-04-04T02:49:32.348Z,-2.32
2023-04-04T02:53:54.509Z,-2.35
2023-04-04T02:58:06.341Z,-2.39
2023-04-04T03:24:14.431Z,-2.46
2023-04-04T03:28:49.098Z,-2.49
2023-04-04T03:54:53.149Z,-2.56
2023-04-04T03:59:22.010Z,-2.63
2023-04-04T04:21:04.058Z,-2.72
2023-04-04T04:25:32.870Z,-2.77
2023-04-04T04:44:51.995Z,-2.49
2023-04-04T04:49:09.885Z,-2.11
2023-04-04T04:53:23.501Z,-1.93
2023-04-04T05:26:16.159Z,-1.30
2023-04-04T05:30:44.188Z,-1.27
2023-04-04T05:35:13.468Z,-1.17
2023-04-04T05:39:42.878Z,-1.05
2023-04-04T05:48:07.679Z,-0.81
2023-04-04T06:04:38.209Z,0.21
2023-04-04T06:09:08.738Z,0.51
2023-04-04T06:13:27.061Z,0.72
2023-04-04T06:17:18.953Z,0.93
2023-04-04T06:21:20.593Z,1.19
2023-04-04T06:25:42.522Z,1.45
2023-04-04T07:26:09.866Z,4.28
2023-04-04T07:30:38.535Z,4.54
2023-04-04T07:47:29.549Z,5.18
2023-04-04T07:51:50.641Z,5.25
2023-04-04T07:56:19.554Z,5.36
2023-04-04T08:25:55.707Z,5.96
2023-04-04T08:29:43.597Z,6.23
2023-04-04T08:34:12.424Z,6.51
2023-04-04T08:55:18.493Z,7.04
2023-04-04T08:59:37.311Z,6.71
2023-04-04T09:03:59.678Z,6.40
2023-04-04T09:08:14.476Z,6.44
2023-04-04T09:12:44.309Z,6.34
2023-04-04T09:17:05.386Z,6.76
2023-04-04T09:21:44.364Z,7.22
2023-04-04T10:04:05.061Z,7.50
2023-04-04T10:08:29.179Z,7.67
2023-04-04T10:13:11.394Z,7.63
2023-04-04T10:17:14.461Z,7.29
2023-04-04T10:21:16.072Z,6.95
2023-04-04T10:25:33.906Z,6.77
2023-04-04T11:08:41.689Z,8.28
2023-04-04T11:13:13.784Z,8.04
2023-04-04T11:17:34.851Z,7.90
2023-04-04T11:21:54.906Z,7.57
2023-04-04T11:26:33.151Z,7.72
2023-04-04T11:30:36.402Z,8.65
2023-04-04T11:56:00.124Z,7.37
2023-04-04T12:00:11.690Z,7.24
2023-04-04T12:04:21.767Z,7.24
2023-04-04T12:08:09.456Z,7.17
2023-04-04T12:47:03.244Z,6.91
2023-04-04T12:51:31.760Z,7.25
2023-04-04T12:56:00.709Z,7.21
2023-04-04T13:00:19.210Z,7.25
2023-04-04T13:04:44.303Z,7.45
2023-04-04T13:09:13.435Z,7.62
2023-04-04T13:13:34.429Z,7.54
2023-04-04T13:58:39.875Z,9.55
2023-04-04T14:03:01.424Z,9.64
2023-04-04T14:07:01.071Z,9.86
2023-04-04T14:11:03.337Z,9.63
2023-04-04T14:47:47.532Z,8.74
2023-04-04T14:52:05.249Z,8.89
2023-04-04T14:56:05.555Z,8.90
2023-04-04T15:00:20.786Z,9.02
2023-04-04T15:04:38.363Z,9.11
2023-04-04T15:09:04.874Z,9.01
2023-04-04T15:12:49.729Z,8.89
2023-04-04T15:17:12.068Z,8.85
2023-04-04T15:38:33.760Z,8.51
2023-04-04T15:42:45.424Z,8.36
2023-04-04T15:46:45.573Z,8.33
2023-04-04T15:51:04.722Z,8.20
2023-04-04T15:55:27.442Z,8.21
2023-04-04T15:59:12.508Z,8.23
2023-04-04T16:03:04.623Z,8.13
2023-04-04T16:07:10.166Z,7.91
2023-04-04T16:15:10.647Z,7.40
2023-04-04T16:19:29.454Z,7.04
2023-04-04T16:44:05.219Z,5.95
2023-04-04T16:47:36.912Z,5.81
2023-04-04T16:51:49.065Z,5.70
2023-04-04T17:12:24.030Z,5.31
2023-04-04T17:16:35.610Z,5.19
2023-04-04T17:20:43.764Z,5.05
2023-04-04T17:24:59.006Z,4.96
2023-04-04T17:29:20.355Z,4.84
2023-04-04T17:33:38.365Z,4.77
2023-04-04T17:56:04.163Z,4.17
2023-04-04T18:00:33.619Z,4.05
2023-04-04T18:09:20.353Z,3.81
2023-04-04T18:13:29.749Z,3.75
2023-04-04T18:26:25.110Z,3.60
2023-04-04T18:30:54.174Z,3.51
2023-04-04T18:47:37.690Z,3.17
2023-04-04T18:52:08.518Z,3.08
2023-04-04T19:14:22.482Z,2.88
2023-04-04T19:18:49.558Z,2.85
2023-04-04T19:35:56.209Z,2.88
2023-04-04T19:40:29.314Z,2.88
2023-04-04T19:45:00.762Z,2.86
2023-04-04T20:07:18.831Z,3.07
2023-04-04T20:11:44.335Z,3.09
2023-04-04T20:22:30.765Z,3.31
2023-04-04T20:27:06.040Z,3.34
2023-04-04T20:35:40.444Z,3.35
2023-04-04T21:01:08.189Z,3.54
2023-04-04T21:05:39.526Z,3.57
2023-04-04T21:10:09.405Z,3.55
2023-04-04T21:36:02.662Z,3.69
2023-04-04T21:40:25.059Z,3.67
2023-04-04T21:44:54.031Z,3.72
2023-04-04T21:49:24.073Z,3.77
2023-04-04T22:11:35.106Z,3.88
2023-04-04T22:16:04.955Z,3.87
2023-04-04T22:37:19.422Z,3.80
2023-04-04T22:41:48.955Z,3.79
2023-04-04T22:46:09.771Z,3.77
2023-04-04T22:50:39.295Z,3.77
2023-04-04T22:55:05.815Z,3.71
2023-04-04T22:59:35.847Z,3.65
2023-04-04T23:17:47.923Z,3.62
2023-04-04T23:22:17.404Z,3.62
2023-04-04T23:26:47.858Z,3.59
2023-04-04T23:48:34.561Z,3.43
2023-04-04T23:53:04.333Z,3.42
2023-04-04T23:57:17.362Z,3.37
